createdAt,value
2022-12-01T00:07:28.747Z,25.13
2022-12-01T00:37:32.141Z,20.80
2022-12-01T01:07:35.614Z,22.17
2022-12-01T01:37:38.866Z,23.63
2022-12-01T02:07:42.244Z,20.10
2022-12-01T02:37:45.464Z,19.07
2022-12-01T03:07:48.660Z,22.20
2022-12-01T03:37:51.518Z,21.10
2022-12-01T04:07:55.372Z,21.87
2022-12-01T04:37:58.755Z,20.33
2022-12-01T05:08:01.777Z,21.90
2022-12-01T05:38:08.007Z,19.87
2022-12-01T06:08:11.838Z,20.67
2022-12-01T06:38:15.464Z,21.60
2022-12-01T07:08:18.411Z,19.50
2022-12-01T07:38:22.377Z,18.47
2022-12-01T08:08:26.329Z,17.10
2022-12-01T08:38:30.415Z,20.83
2022-12-01T09:08:33.795Z,19.47
2022-12-01T09:38:37.318Z,16.67
2022-12-01T10:08:40.874Z,20.47
2022-12-01T10:38:44.465Z,19.83
2022-12-01T11:08:47.691Z,22.43
2022-12-01T11:38:51.076Z,23.20
2022-12-01T12:08:54.636Z,21.13
2022-12-01T12:38:58.069Z,23.33
2022-12-01T13:09:01.598Z,24.63
2022-12-01T13:39:04.757Z,21.40
2022-12-01T14:09:08.003Z,21.67
2022-12-01T14:39:11.213Z,24.55
2022-12-01T15:39:38.106Z,20.03
2022-12-01T16:09:41.030Z,14.47
2022-12-01T16:39:44.263Z,13.60
2022-12-01T17:09:47.253Z,12.10
2022-12-01T17:39:50.835Z,13.43
2022-12-01T18:09:55.110Z,12.23
2022-12-01T18:39:58.888Z,7.53
2022-12-01T19:10:02.287Z,10.70
2022-12-01T19:40:05.646Z,9.93
2022-12-01T20:10:10.072Z,12.60
2022-12-01T20:40:13.229Z,14.27
2022-12-01T21:10:20.222Z,11.23
2022-12-01T21:40:24.208Z,14.60
2022-12-01T22:10:28.324Z,13.40
2022-12-01T22:40:31.627Z,9.00
2022-12-01T23:10:35.154Z,10.63
2022-12-01T23:40:38.051Z,13.20
